createdAt,value
2022-08-18T00:00:38.116Z,12.85
2022-08-18T00:01:38.209Z,12.84
2022-08-18T00:02:38.118Z,12.81
2022-08-18T00:03:56.862Z,12.78
2022-08-18T00:04:48.674Z,12.74
2022-08-18T00:05:39.064Z,12.71
2022-08-18T00:06:38.057Z,12.71
2022-08-18T00:07:38.095Z,12.78
2022-08-18T00:08:38.708Z,12.82
2022-08-18T00:09:38.030Z,12.88
2022-08-18T00:10:38.019Z,12.93
2022-08-18T00:11:41.701Z,12.87
2022-08-18T00:12:37.995Z,12.79
2022-08-18T00:13:38.016Z,12.71
2022-08-18T00:14:37.980Z,12.63
2022-08-18T00:15:41.639Z,12.56
2022-08-18T00:16:38.950Z,12.56
2022-08-18T00:17:37.940Z,12.60
2022-08-18T00:18:37.938Z,12.67
2022-08-18T00:19:47.718Z,12.71
2022-08-18T00:20:38.919Z,12.79
2022-08-18T00:21:37.891Z,12.88
2022-08-18T00:22:37.890Z,12.95
2022-08-18T00:23:37.882Z,12.99
2022-08-18T00:24:37.874Z,13.03
2022-08-18T00:25:38.883Z,13.07
2022-08-18T00:26:37.852Z,13.12
2022-08-18T00:27:37.842Z,13.15
2022-08-18T00:28:37.833Z,13.17
2022-08-18T00:29:37.813Z,13.20
2022-08-18T00:30:37.812Z,13.18
2022-08-18T00:31:37.835Z,13.09
2022-08-18T00:32:37.794Z,13.04
2022-08-18T00:33:37.774Z,12.96
2022-08-18T00:34:37.771Z,12.87
2022-08-18T00:35:37.755Z,12.81
2022-08-18T00:36:37.752Z,12.77
2022-08-18T00:37:37.786Z,12.70
2022-08-18T00:38:37.746Z,12.66
2022-08-18T00:39:43.510Z,12.67
2022-08-18T00:40:38.707Z,12.70
2022-08-18T00:41:37.697Z,12.71
2022-08-18T00:42:37.677Z,12.78
2022-08-18T00:43:37.699Z,12.81
2022-08-18T00:44:37.666Z,12.87
2022-08-18T00:45:37.648Z,12.96
2022-08-18T00:46:37.641Z,13.02
2022-08-18T00:47:42.507Z,13.07
2022-08-18T00:48:38.664Z,13.09
2022-08-18T00:49:37.609Z,13.11
2022-08-18T00:50:37.599Z,13.09
2022-08-18T00:51:37.594Z,13.09
2022-08-18T00:52:37.580Z,13.09
2022-08-18T00:53:37.570Z,13.09
2022-08-18T00:54:37.591Z,13.12
2022-08-18T00:55:37.540Z,13.14
2022-08-18T00:56:37.541Z,13.18
2022-08-18T00:57:37.522Z,13.21
2022-08-18T00:58:37.534Z,13.24
2022-08-18T00:59:37.510Z,13.27
2022-08-18T01:00:37.586Z,13.25
2022-08-18T01:01:37.498Z,13.21
2022-08-18T01:02:37.484Z,13.09
2022-08-18T01:03:37.455Z,12.97
2022-08-18T01:04:37.456Z,12.85
2022-08-18T01:05:37.447Z,12.71
2022-08-18T01:06:37.463Z,12.62
2022-08-18T01:07:37.422Z,12.62
2022-08-18T01:08:37.414Z,12.60
2022-08-18T01:09:37.410Z,12.63
2022-08-18T01:10:37.394Z,12.74
2022-08-18T01:11:37.375Z,12.77
2022-08-18T01:12:45.429Z,12.78
2022-08-18T01:13:38.368Z,12.78
2022-08-18T01:14:37.348Z,12.78
2022-08-18T01:15:37.350Z,12.82
2022-08-18T01:16:37.334Z,12.85
2022-08-18T01:17:37.321Z,12.88
2022-08-18T01:18:37.342Z,12.92
2022-08-18T01:19:37.305Z,12.95
2022-08-18T01:20:37.291Z,12.96
2022-08-18T01:21:37.276Z,13.00
2022-08-18T01:22:37.260Z,13.06
2022-08-18T01:23:37.249Z,13.07
2022-08-18T01:24:37.279Z,13.07
2022-08-18T01:25:37.237Z,12.99
2022-08-18T01:26:37.229Z,12.82
2022-08-18T01:27:38.211Z,12.75
2022-08-18T01:28:37.201Z,12.75
2022-08-18T01:29:40.273Z,12.82
2022-08-18T01:30:38.222Z,12.85
2022-08-18T01:31:37.171Z,12.88
2022-08-18T01:32:37.168Z,12.87
2022-08-18T01:33:37.150Z,12.88
2022-08-18T01:34:37.143Z,12.89
2022-08-18T01:35:41.845Z,12.92
2022-08-18T01:36:38.144Z,12.93
2022-08-18T01:37:37.102Z,12.93
2022-08-18T01:38:37.092Z,12.97
2022-08-18T01:41:21.868Z,12.92
2022-08-18T01:41:22.074Z,12.96
2022-08-18T01:41:38.160Z,12.88
2022-08-18T01:42:37.105Z,12.77
2022-08-18T01:43:37.045Z,12.64
2022-08-18T01:44:37.032Z,12.54
2022-08-18T01:45:37.024Z,12.51
2022-08-18T01:46:37.030Z,12.46
2022-08-18T01:47:47.126Z,12.41
2022-08-18T01:48:38.027Z,12.31
2022-08-18T01:49:36.978Z,12.27
2022-08-18T01:50:36.966Z,12.21
2022-08-18T01:51:40.636Z,12.16
2022-08-18T01:52:36.946Z,12.12
2022-08-18T01:53:36.937Z,12.09
2022-08-18T01:54:36.947Z,12.06
2022-08-18T01:55:36.918Z,12.06
2022-08-18T01:56:36.907Z,12.09
2022-08-18T01:57:36.900Z,12.13
2022-08-18T01:58:36.877Z,12.19
2022-08-18T01:59:36.873Z,12.23
2022-08-18T02:00:36.906Z,12.24
2022-08-18T02:01:37.207Z,12.26
2022-08-18T02:02:36.838Z,12.27
2022-08-18T02:03:36.833Z,12.30
2022-08-18T02:04:37.523Z,12.33
2022-08-18T02:05:36.809Z,12.34
2022-08-18T02:06:36.829Z,12.31
2022-08-18T02:07:36.793Z,12.24
2022-08-18T02:08:36.771Z,12.15
2022-08-18T02:09:36.774Z,12.08
2022-08-18T02:10:36.751Z,12.02
2022-08-18T02:11:36.745Z,12.01
2022-08-18T02:12:36.752Z,11.97
2022-08-18T02:13:36.724Z,11.99
2022-08-18T02:14:36.715Z,11.97
2022-08-18T02:15:36.714Z,11.94
2022-08-18T02:16:36.685Z,11.93
2022-08-18T02:17:36.704Z,11.94
2022-08-18T02:18:47.992Z,11.96
2022-08-18T02:19:37.656Z,11.99
2022-08-18T02:20:36.644Z,12.02
2022-08-18T02:21:36.635Z,12.04
2022-08-18T02:22:36.627Z,11.97
2022-08-18T02:23:36.616Z,11.99
2022-08-18T02:24:36.638Z,11.96
2022-08-18T02:25:36.600Z,11.86
2022-08-18T02:26:36.588Z,11.77
2022-08-18T02:27:36.579Z,11.74
2022-08-18T02:28:36.569Z,11.77
2022-08-18T02:29:36.557Z,11.77
2022-08-18T02:30:36.570Z,11.80
2022-08-18T02:31:36.545Z,11.80
2022-08-18T02:32:36.530Z,11.77
2022-08-18T02:33:36.519Z,11.80
2022-08-18T02:34:36.506Z,11.85
2022-08-18T02:35:36.499Z,11.86
2022-08-18T02:36:36.519Z,11.87
2022-08-18T02:37:36.481Z,11.89
2022-08-18T02:38:36.460Z,11.93
2022-08-18T02:39:36.489Z,11.90
2022-08-18T02:40:36.441Z,11.87
2022-08-18T02:41:36.443Z,11.89
2022-08-18T02:42:36.453Z,11.96
2022-08-18T02:43:37.867Z,11.97
2022-08-18T02:44:36.402Z,11.97
2022-08-18T02:45:36.392Z,11.93
2022-08-18T02:46:36.380Z,11.94
2022-08-18T02:47:36.378Z,11.97
2022-08-18T02:48:36.401Z,11.99
2022-08-18T02:49:36.353Z,12.02
2022-08-18T02:50:36.336Z,12.08
2022-08-18T02:51:36.342Z,12.09
2022-08-18T02:52:36.277Z,12.11
2022-08-18T02:53:36.313Z,12.06
2022-08-18T02:54:36.325Z,12.05
2022-08-18T02:55:36.292Z,12.08
2022-08-18T02:56:41.300Z,12.08
2022-08-18T02:57:37.277Z,12.11
2022-08-18T02:58:36.268Z,12.13
2022-08-18T02:59:36.253Z,12.13
2022-08-18T03:00:36.311Z,12.09
2022-08-18T03:01:36.270Z,12.06
2022-08-18T03:02:36.220Z,12.01
2022-08-18T03:03:36.168Z,11.75
2022-08-18T03:04:36.140Z,11.57
2022-08-18T03:05:36.132Z,11.59
2022-08-18T03:06:36.150Z,11.62
2022-08-18T03:07:36.109Z,11.67
2022-08-18T03:08:36.098Z,11.72
2022-08-18T03:09:36.093Z,11.77
2022-08-18T03:10:36.079Z,11.82
2022-08-18T03:11:36.068Z,11.86
2022-08-18T03:12:36.100Z,11.93
2022-08-18T03:13:36.050Z,11.93
2022-08-18T03:14:36.031Z,11.87
2022-08-18T03:15:36.032Z,11.86
2022-08-18T03:16:36.023Z,11.87
2022-08-18T03:17:36.011Z,11.94
2022-08-18T03:18:36.024Z,11.99
2022-08-18T03:19:35.985Z,12.02
2022-08-18T03:20:35.969Z,12.01
2022-08-18T03:21:35.966Z,11.89
2022-08-18T03:22:35.961Z,11.77
2022-08-18T03:23:35.944Z,11.72
2022-08-18T03:24:35.966Z,11.75
2022-08-18T03:25:35.924Z,11.75
2022-08-18T03:26:35.913Z,11.77
2022-08-18T03:27:35.907Z,11.80
2022-08-18T03:28:35.894Z,11.85
2022-08-18T03:29:35.888Z,11.89
2022-08-18T03:30:35.893Z,11.94
2022-08-18T03:31:35.866Z,11.97
2022-08-18T03:32:35.855Z,12.02
2022-08-18T03:33:35.847Z,12.06
2022-08-18T03:34:35.827Z,12.09
2022-08-18T03:35:35.827Z,12.11
2022-08-18T03:36:35.838Z,12.05
2022-08-18T03:37:35.804Z,11.97
2022-08-18T03:38:35.787Z,11.87
2022-08-18T03:39:35.821Z,11.82
2022-08-18T03:40:35.772Z,11.74
2022-08-18T03:41:59.060Z,11.67
2022-08-18T03:42:36.775Z,11.62
2022-08-18T03:43:51.322Z,11.61
2022-08-18T03:44:36.730Z,11.61
2022-08-18T03:45:35.728Z,11.62
2022-08-18T03:46:35.707Z,11.65
2022-08-18T03:47:35.699Z,11.70
2022-08-18T03:48:35.731Z,11.71
2022-08-18T03:49:35.680Z,11.74
2022-08-18T03:50:35.667Z,11.82
2022-08-18T03:51:35.660Z,11.85
2022-08-18T03:52:35.651Z,11.82
2022-08-18T03:53:36.671Z,11.82
2022-08-18T03:54:35.632Z,11.82
2022-08-18T03:55:35.632Z,11.75
2022-08-18T03:56:35.612Z,11.75
2022-08-18T03:57:38.894Z,11.75
2022-08-18T03:58:35.593Z,11.80
2022-08-18T03:59:35.612Z,11.80
2022-08-18T04:00:35.586Z,11.80
2022-08-18T04:01:35.602Z,11.85
2022-08-18T04:02:35.544Z,11.87
2022-08-18T04:03:35.543Z,11.94
2022-08-18T04:04:35.529Z,11.99
2022-08-18T04:05:35.544Z,12.05
2022-08-18T04:06:35.519Z,12.08
2022-08-18T04:07:35.505Z,12.09
2022-08-18T04:08:35.486Z,12.11
2022-08-18T04:09:35.491Z,12.12
2022-08-18T04:10:35.466Z,12.16
2022-08-18T04:11:36.474Z,12.19
2022-08-18T04:12:35.447Z,12.21
2022-08-18T04:13:35.438Z,12.31
2022-08-18T04:14:35.431Z,12.37
2022-08-18T04:15:35.429Z,12.39
2022-08-18T04:16:35.408Z,12.42
2022-08-18T04:17:35.429Z,12.46
2022-08-18T04:18:36.388Z,12.46
2022-08-18T04:19:35.394Z,12.48
2022-08-18T04:20:35.370Z,12.51
2022-08-18T04:21:35.361Z,12.52
2022-08-18T04:22:35.352Z,12.57
2022-08-18T04:23:43.374Z,12.62
2022-08-18T04:24:36.336Z,12.63
2022-08-18T04:25:35.322Z,12.66
2022-08-18T04:26:35.315Z,12.69
2022-08-18T04:27:35.303Z,12.78
2022-08-18T04:28:35.290Z,12.85
2022-08-18T04:29:35.309Z,12.88
2022-08-18T04:30:35.271Z,12.92
2022-08-18T04:31:35.262Z,12.95
2022-08-18T04:32:35.253Z,12.97
2022-08-18T04:33:35.245Z,13.00
2022-08-18T04:34:35.224Z,13.04
2022-08-18T04:35:35.246Z,13.11
2022-08-18T04:36:35.205Z,13.17
2022-08-18T04:37:37.991Z,13.21
2022-08-18T04:38:35.183Z,13.25
2022-08-18T04:39:35.187Z,13.30
2022-08-18T04:40:35.165Z,13.36
2022-08-18T04:41:35.185Z,13.40
2022-08-18T04:42:35.135Z,13.49
2022-08-18T04:43:36.133Z,13.56
2022-08-18T04:44:35.125Z,13.62
2022-08-18T04:45:35.118Z,13.69
2022-08-18T04:46:35.099Z,13.76
2022-08-18T04:47:35.117Z,13.80
2022-08-18T04:48:35.068Z,13.88
2022-08-18T04:49:35.067Z,13.94
2022-08-18T04:50:35.058Z,14.04
2022-08-18T04:52:26.812Z,14.07
2022-08-18T04:52:40.281Z,14.13
2022-08-18T04:53:36.033Z,14.16
2022-08-18T04:54:35.009Z,14.19
2022-08-18T04:55:35.009Z,14.24
2022-08-18T04:56:34.989Z,14.29
2022-08-18T04:57:35.346Z,14.35
2022-08-18T04:58:34.992Z,14.42
2022-08-18T04:59:34.969Z,14.50
2022-08-18T05:00:34.948Z,14.54
2022-08-18T05:01:34.989Z,14.61
2022-08-18T05:02:34.935Z,14.68
2022-08-18T05:03:34.923Z,14.72
2022-08-18T05:04:34.933Z,14.80
2022-08-18T05:05:34.903Z,14.84
2022-08-18T05:06:34.892Z,14.91
2022-08-18T05:07:34.884Z,14.99
2022-08-18T05:08:34.864Z,15.06
2022-08-18T05:09:41.437Z,15.12
2022-08-18T05:10:35.884Z,15.17
2022-08-18T05:11:34.848Z,15.21
2022-08-18T05:12:34.826Z,15.27
2022-08-18T05:13:34.816Z,15.35
2022-08-18T05:14:34.806Z,15.41
2022-08-18T05:15:52.710Z,15.43
2022-08-18T05:16:35.807Z,15.49
2022-08-18T05:17:34.778Z,15.56
2022-08-18T05:18:34.766Z,15.63
2022-08-18T05:19:34.757Z,15.70
2022-08-18T05:20:34.739Z,15.82
2022-08-18T05:21:34.740Z,15.94
2022-08-18T05:22:34.749Z,16.00
2022-08-18T05:23:34.709Z,16.11
2022-08-18T05:24:37.276Z,16.23
2022-08-18T05:25:34.691Z,16.33
2022-08-18T05:26:34.681Z,16.40
2022-08-18T05:27:34.678Z,16.44
2022-08-18T05:28:34.690Z,16.45
2022-08-18T05:29:34.650Z,16.42
2022-08-18T05:30:34.639Z,16.48
2022-08-18T05:31:34.632Z,16.50
2022-08-18T05:32:46.962Z,16.44
2022-08-18T05:33:35.632Z,16.42
2022-08-18T05:34:34.593Z,16.41
2022-08-18T05:35:34.594Z,16.37
2022-08-18T05:36:34.573Z,16.22
2022-08-18T05:37:35.691Z,16.07
2022-08-18T05:38:34.557Z,15.99
2022-08-18T05:39:34.663Z,15.93
2022-08-18T05:40:34.538Z,15.85
2022-08-18T05:41:34.524Z,15.81
2022-08-18T05:42:35.242Z,15.81
2022-08-18T05:43:34.507Z,15.78
2022-08-18T05:44:35.175Z,15.78
2022-08-18T05:45:34.509Z,15.78
2022-08-18T05:46:34.481Z,15.81
2022-08-18T05:47:34.468Z,15.85
2022-08-18T05:48:34.457Z,15.89
2022-08-18T05:49:34.438Z,15.96
2022-08-18T05:50:34.430Z,15.94
2022-08-18T05:51:34.446Z,15.97
2022-08-18T05:52:34.409Z,16.00
2022-08-18T05:53:34.399Z,15.99
2022-08-18T05:54:34.389Z,16.01
2022-08-18T05:55:34.377Z,16.01
2022-08-18T05:56:34.368Z,16.01
2022-08-18T05:57:34.390Z,16.06
2022-08-18T05:58:34.352Z,16.04
2022-08-18T05:59:34.330Z,16.06
2022-08-18T06:00:34.332Z,16.11
2022-08-18T06:01:34.313Z,16.15
2022-08-18T06:02:34.344Z,16.23
2022-08-18T06:03:46.810Z,16.27
2022-08-18T06:04:35.303Z,16.34
2022-08-18T06:05:34.264Z,16.38
2022-08-18T06:06:34.274Z,16.42
2022-08-18T06:07:34.253Z,16.44
2022-08-18T06:08:34.244Z,16.49
2022-08-18T06:09:34.263Z,16.49
2022-08-18T06:10:34.232Z,16.45
2022-08-18T06:11:34.205Z,16.44
2022-08-18T06:12:37.310Z,16.41
2022-08-18T06:13:34.193Z,16.44
2022-08-18T06:14:34.185Z,16.38
2022-08-18T06:15:34.203Z,16.35
2022-08-18T06:16:35.180Z,16.33
2022-08-18T06:17:34.148Z,16.30
2022-08-18T06:18:34.138Z,16.26
2022-08-18T06:19:34.128Z,16.22
2022-08-18T06:20:34.120Z,16.20
2022-08-18T06:21:38.819Z,16.20
2022-08-18T06:22:35.099Z,16.23
2022-08-18T06:23:34.090Z,16.33
2022-08-18T06:24:34.079Z,16.42
2022-08-18T06:25:34.060Z,16.49
2022-08-18T06:26:34.060Z,16.55
2022-08-18T06:27:34.071Z,16.60
2022-08-18T06:28:34.040Z,16.70
2022-08-18T06:29:34.018Z,16.80
2022-08-18T06:30:34.011Z,16.88
2022-08-18T06:31:34.006Z,16.89
2022-08-18T06:32:33.991Z,16.96
2022-08-18T06:33:34.012Z,16.93
2022-08-18T06:34:33.970Z,16.89
2022-08-18T06:35:33.962Z,16.93
2022-08-18T06:36:33.962Z,16.96
2022-08-18T06:37:33.943Z,17.07
2022-08-18T06:38:33.933Z,17.11
2022-08-18T06:39:33.972Z,17.25
2022-08-18T06:40:33.907Z,17.33
2022-08-18T06:41:40.888Z,17.40
2022-08-18T06:42:39.980Z,17.44
2022-08-18T06:43:34.877Z,17.46
2022-08-18T06:44:33.866Z,17.43
2022-08-18T06:45:35.848Z,17.43
2022-08-18T06:46:33.848Z,17.43
2022-08-18T06:47:33.837Z,17.44
2022-08-18T06:48:33.841Z,17.51
2022-08-18T06:49:33.818Z,17.59
2022-08-18T06:50:33.816Z,17.69
2022-08-18T06:51:38.727Z,17.74
2022-08-18T06:52:34.793Z,17.79
2022-08-18T06:53:33.780Z,17.88
2022-08-18T06:54:33.770Z,17.99
2022-08-18T06:55:33.750Z,18.04
2022-08-18T06:56:33.749Z,18.10
2022-08-18T06:57:33.770Z,18.10
2022-08-18T06:58:33.721Z,18.15
2022-08-18T06:59:33.714Z,18.15
2022-08-18T07:00:33.725Z,18.13
2022-08-18T07:01:33.735Z,18.15
2022-08-18T07:02:35.439Z,18.10
2022-08-18T07:03:34.163Z,18.07
2022-08-18T07:04:33.668Z,18.00
2022-08-18T07:05:33.655Z,18.03
2022-08-18T07:06:34.336Z,18.04
2022-08-18T07:07:40.327Z,18.10
2022-08-18T07:08:35.840Z,18.22
2022-08-18T07:09:33.613Z,18.24
2022-08-18T07:10:33.606Z,18.27
2022-08-18T07:11:33.606Z,18.40
2022-08-18T07:12:33.591Z,18.43
2022-08-18T07:13:33.568Z,18.46
2022-08-18T07:14:33.586Z,18.58
2022-08-18T07:15:33.553Z,18.70
2022-08-18T07:16:57.822Z,18.77
2022-08-18T07:17:43.045Z,18.77
2022-08-18T07:18:34.518Z,18.79
2022-08-18T07:19:33.512Z,18.79
2022-08-18T07:20:33.529Z,18.76
2022-08-18T07:21:33.497Z,18.74
2022-08-18T07:22:39.428Z,18.77
2022-08-18T07:23:34.485Z,18.84
2022-08-18T07:24:33.461Z,18.99
2022-08-18T07:25:33.441Z,19.11
2022-08-18T07:26:33.463Z,19.25
2022-08-18T07:27:33.470Z,19.35
2022-08-18T07:28:33.421Z,19.40
2022-08-18T07:29:33.404Z,19.43
2022-08-18T07:30:33.466Z,19.43
2022-08-18T07:31:33.386Z,19.48
2022-08-18T07:32:33.404Z,19.53
2022-08-18T07:33:33.365Z,19.55
2022-08-18T07:34:33.356Z,19.48
2022-08-18T07:35:33.347Z,19.36
2022-08-18T07:36:33.368Z,19.33
2022-08-18T07:37:33.315Z,19.38
2022-08-18T07:38:43.157Z,19.46
2022-08-18T07:39:34.333Z,19.47
2022-08-18T07:40:33.297Z,19.35
2022-08-18T07:41:33.279Z,19.32
2022-08-18T07:43:00.566Z,19.33
2022-08-18T07:43:34.282Z,19.39
2022-08-18T07:44:33.261Z,19.38
2022-08-18T07:45:33.240Z,19.32
2022-08-18T07:46:33.230Z,19.31
2022-08-18T07:47:33.211Z,19.32
2022-08-18T07:48:40.477Z,19.35
2022-08-18T07:49:35.250Z,19.40
2022-08-18T07:50:58.625Z,19.43
2022-08-18T07:51:37.456Z,19.50
2022-08-18T07:52:36.077Z,19.54
2022-08-18T07:53:33.151Z,19.60
2022-08-18T07:54:50.219Z,19.65
2022-08-18T07:55:34.153Z,19.70
2022-08-18T07:56:33.124Z,19.75
2022-08-18T07:57:33.114Z,19.79
2022-08-18T07:58:34.105Z,19.86
2022-08-18T07:59:33.092Z,19.88
2022-08-18T08:00:57.722Z,19.93
2022-08-18T08:01:34.196Z,19.95
2022-08-18T08:02:33.068Z,19.91
2022-08-18T08:03:33.046Z,19.91
2022-08-18T08:04:33.038Z,19.94
2022-08-18T08:05:33.029Z,20.00
2022-08-18T08:06:33.027Z,20.05
2022-08-18T08:07:33.041Z,20.06
2022-08-18T08:08:32.999Z,20.02
2022-08-18T08:09:32.989Z,20.05
2022-08-18T08:10:32.980Z,20.16
2022-08-18T08:11:32.970Z,20.27
2022-08-18T08:12:32.960Z,20.34
2022-08-18T08:13:53.935Z,20.42
2022-08-18T08:14:33.940Z,20.54
2022-08-18T08:15:32.922Z,20.65
2022-08-18T08:16:32.933Z,20.69
2022-08-18T08:17:32.913Z,20.72
2022-08-18T08:18:32.902Z,20.72
2022-08-18T08:19:58.936Z,20.69
2022-08-18T08:20:35.143Z,20.68
2022-08-18T08:21:32.874Z,20.65
2022-08-18T08:22:32.945Z,20.69
2022-08-18T08:23:32.847Z,20.76
2022-08-18T08:24:32.844Z,20.86
2022-08-18T08:25:46.218Z,20.93
2022-08-18T08:26:33.814Z,21.01
2022-08-18T08:27:32.809Z,21.09
2022-08-18T08:28:32.803Z,21.19
2022-08-18T08:29:32.786Z,21.29
2022-08-18T08:30:32.781Z,21.34
2022-08-18T08:31:36.819Z,21.38
2022-08-18T08:32:32.759Z,21.42
2022-08-18T08:33:32.752Z,21.44
2022-08-18T08:34:32.749Z,21.36
2022-08-18T08:35:49.233Z,21.38
2022-08-18T08:36:33.741Z,21.44
2022-08-18T08:37:32.711Z,21.42
2022-08-18T08:38:42.940Z,21.32
2022-08-18T08:39:33.755Z,21.23
2022-08-18T08:40:32.689Z,21.26
2022-08-18T08:41:32.666Z,21.30
2022-08-18T08:42:35.399Z,21.36
2022-08-18T08:43:32.638Z,21.35
2022-08-18T08:44:32.634Z,21.38
2022-08-18T08:45:32.627Z,21.45
2022-08-18T08:46:32.615Z,21.45
2022-08-18T08:47:32.602Z,21.50
2022-08-18T08:48:32.606Z,21.54
2022-08-18T08:49:32.575Z,21.61
2022-08-18T08:50:32.566Z,21.74
2022-08-18T08:51:32.566Z,21.81
2022-08-18T08:52:32.547Z,21.81
2022-08-18T08:53:32.535Z,21.88
2022-08-18T08:54:32.547Z,21.97
2022-08-18T08:55:32.509Z,21.94
2022-08-18T08:56:33.186Z,21.81
2022-08-18T08:57:32.489Z,21.81
2022-08-18T08:58:32.479Z,21.92
2022-08-18T08:59:32.469Z,21.95
2022-08-18T09:00:32.480Z,22.02
2022-08-18T09:01:32.536Z,22.10
2022-08-18T09:02:47.158Z,22.04
2022-08-18T09:03:34.153Z,22.07
2022-08-18T09:04:32.423Z,22.14
2022-08-18T09:05:32.410Z,22.23
2022-08-18T09:06:32.433Z,22.23
2022-08-18T09:07:38.047Z,22.31
2022-08-18T09:08:33.371Z,22.39
2022-08-18T09:09:32.363Z,22.43
2022-08-18T09:10:32.363Z,22.46
2022-08-18T09:11:32.344Z,22.53
2022-08-18T09:12:32.365Z,22.60
2022-08-18T09:13:32.324Z,22.56
2022-08-18T09:14:32.327Z,22.60
2022-08-18T09:15:32.304Z,22.67
2022-08-18T09:16:32.977Z,22.64
2022-08-18T09:17:34.425Z,22.60
2022-08-18T09:18:32.305Z,22.65
2022-08-18T09:19:32.258Z,22.72
2022-08-18T09:20:32.978Z,22.80
2022-08-18T09:21:32.247Z,22.77
2022-08-18T09:22:32.236Z,22.82
2022-08-18T09:23:32.227Z,22.87
2022-08-18T09:24:32.241Z,22.93
2022-08-18T09:25:32.201Z,22.94
2022-08-18T09:26:34.279Z,22.94
2022-08-18T09:27:48.527Z,23.02
2022-08-18T09:28:33.181Z,22.94
2022-08-18T09:29:32.161Z,22.87
2022-08-18T09:30:32.184Z,22.59
2022-08-18T09:31:32.388Z,22.38
2022-08-18T09:32:32.142Z,22.34
2022-08-18T09:33:32.125Z,22.19
2022-08-18T09:34:32.126Z,22.19
2022-08-18T09:35:32.104Z,22.31
2022-08-18T09:36:32.171Z,22.38
2022-08-18T09:37:32.086Z,22.52
2022-08-18T09:38:32.076Z,22.59
2022-08-18T09:39:32.094Z,22.54
2022-08-18T09:40:59.406Z,22.64
2022-08-18T09:41:33.080Z,22.82
2022-08-18T09:42:32.187Z,22.97
2022-08-18T09:43:32.032Z,23.12
2022-08-18T09:44:32.008Z,23.31
2022-08-18T09:45:33.845Z,23.23
2022-08-18T09:46:31.997Z,23.31
2022-08-18T09:47:31.999Z,23.45
2022-08-18T09:48:31.972Z,23.40
2022-08-18T09:49:37.947Z,23.19
2022-08-18T09:50:33.088Z,23.17
2022-08-18T09:51:31.932Z,23.24
2022-08-18T09:52:31.933Z,23.08
2022-08-18T09:53:31.942Z,23.05
2022-08-18T09:54:31.912Z,22.97
2022-08-18T09:55:31.892Z,22.96
2022-08-18T09:56:31.894Z,23.01
2022-08-18T09:57:36.849Z,22.96
2022-08-18T09:58:32.897Z,22.94
2022-08-18T09:59:31.857Z,22.97
2022-08-18T10:00:33.397Z,22.90
2022-08-18T10:01:31.967Z,22.72
2022-08-18T10:02:31.827Z,22.44
2022-08-18T10:03:31.828Z,22.32
2022-08-18T10:04:31.829Z,22.23
2022-08-18T10:05:31.790Z,22.23
2022-08-18T10:06:31.781Z,22.27
2022-08-18T10:07:36.918Z,22.31
2022-08-18T10:08:32.762Z,22.37
2022-08-18T10:09:36.263Z,22.43
2022-08-18T10:11:02.274Z,22.41
2022-08-18T10:11:32.739Z,22.34
2022-08-18T10:12:31.713Z,22.31
2022-08-18T10:13:31.807Z,22.23
2022-08-18T10:14:31.701Z,22.25
2022-08-18T10:15:33.723Z,22.34
2022-08-18T10:16:38.227Z,22.44
2022-08-18T10:17:32.673Z,22.52
2022-08-18T10:18:31.655Z,22.67
2022-08-18T10:19:33.986Z,22.72
2022-08-18T10:20:32.634Z,22.68
2022-08-18T10:21:33.520Z,22.74
2022-08-18T10:22:35.258Z,22.82
2022-08-18T10:23:31.607Z,22.83
2022-08-18T10:24:36.191Z,22.86
2022-08-18T10:25:32.594Z,22.90
2022-08-18T10:26:31.586Z,22.90
2022-08-18T10:27:31.584Z,22.92
2022-08-18T10:28:31.607Z,23.07
2022-08-18T10:29:31.627Z,23.23
2022-08-18T10:30:34.646Z,23.32
2022-08-18T10:31:32.542Z,23.31
2022-08-18T10:32:31.551Z,23.52
2022-08-18T10:33:31.524Z,23.65
2022-08-18T10:34:31.533Z,23.67
2022-08-18T10:35:32.711Z,23.68
2022-08-18T10:36:31.501Z,23.72
2022-08-18T10:37:31.483Z,23.82
2022-08-18T10:38:31.455Z,23.89
2022-08-18T10:39:31.510Z,24.02
2022-08-18T10:40:32.487Z,24.10
2022-08-18T10:41:31.566Z,24.23
2022-08-18T10:42:31.700Z,24.31
2022-08-18T10:43:45.724Z,24.38
2022-08-18T10:44:32.398Z,24.54
2022-08-18T10:45:31.405Z,24.61
2022-08-18T10:46:33.073Z,24.41
2022-08-18T10:47:34.037Z,24.34
2022-08-18T10:48:31.368Z,24.27
2022-08-18T10:49:31.368Z,24.12
2022-08-18T10:50:31.347Z,24.19
2022-08-18T10:51:31.337Z,24.16
2022-08-18T10:52:33.989Z,24.01
2022-08-18T10:53:39.605Z,23.95
2022-08-18T10:54:32.321Z,23.98
2022-08-18T10:55:47.977Z,23.98
2022-08-18T10:56:32.312Z,24.01
2022-08-18T10:57:31.273Z,23.95
2022-08-18T10:58:31.313Z,23.64
2022-08-18T10:59:31.244Z,23.27
2022-08-18T11:00:32.236Z,23.02
2022-08-18T11:01:32.805Z,23.08
2022-08-18T11:02:31.234Z,23.19
2022-08-18T11:03:51.464Z,23.12
2022-08-18T11:04:34.525Z,23.29
2022-08-18T11:06:32.222Z,24.14
2022-08-18T11:07:34.037Z,24.44
2022-08-18T11:08:31.771Z,24.61
2022-08-18T11:09:31.157Z,24.83
2022-08-18T11:10:32.202Z,24.98
2022-08-18T11:11:34.785Z,25.06
2022-08-18T11:12:32.138Z,25.06
2022-08-18T11:13:31.108Z,25.12
2022-08-18T11:14:31.147Z,25.30
2022-08-18T11:15:36.219Z,25.42
2022-08-18T11:16:32.123Z,25.49
2022-08-18T11:17:31.080Z,25.42
2022-08-18T11:18:31.081Z,25.00
2022-08-18T11:19:31.050Z,24.67
2022-08-18T11:20:31.043Z,24.61
2022-08-18T11:21:31.030Z,24.41
2022-08-18T11:22:32.888Z,24.26
2022-08-18T11:23:31.071Z,24.17
2022-08-18T11:24:31.015Z,24.05
2022-08-18T11:25:30.993Z,23.94
2022-08-18T11:26:31.004Z,23.89
2022-08-18T11:27:30.965Z,23.83
2022-08-18T11:28:32.566Z,23.82
2022-08-18T11:29:32.382Z,23.82
2022-08-18T11:31:31.958Z,23.83
2022-08-18T11:32:30.917Z,23.77
2022-08-18T11:33:31.023Z,23.80
2022-08-18T11:34:31.917Z,23.82
2022-08-18T11:35:30.933Z,23.62
2022-08-18T11:36:30.880Z,23.52
2022-08-18T11:37:51.412Z,23.49
2022-08-18T11:38:31.861Z,23.52
2022-08-18T11:39:38.396Z,23.57
2022-08-18T11:41:10.517Z,23.62
2022-08-18T11:41:48.108Z,23.62
2022-08-18T11:42:31.833Z,23.64
2022-08-18T11:43:41.962Z,23.61
2022-08-18T11:44:31.814Z,23.58
2022-08-18T11:45:30.801Z,23.57
2022-08-18T11:46:31.953Z,23.49
2022-08-18T11:47:30.763Z,23.43
2022-08-18T11:48:46.487Z,23.43
2022-08-18T11:49:33.338Z,23.47
2022-08-18T11:50:30.735Z,23.50
2022-08-18T11:51:30.717Z,23.47
2022-08-18T11:52:34.691Z,23.49
2022-08-18T11:53:30.708Z,23.52
2022-08-18T11:54:30.724Z,23.50
2022-08-18T11:55:30.697Z,23.52
2022-08-18T11:56:32.350Z,23.49
2022-08-18T11:57:31.723Z,23.52
2022-08-18T11:58:33.407Z,23.60
2022-08-18T11:59:53.194Z,23.58
2022-08-18T12:00:31.639Z,23.60
2022-08-18T12:01:30.625Z,23.61
2022-08-18T12:02:30.663Z,23.62
2022-08-18T12:03:30.635Z,23.65
2022-08-18T12:04:30.603Z,23.70
2022-08-18T12:05:33.767Z,23.67
2022-08-18T12:06:31.578Z,23.50
2022-08-18T12:07:30.557Z,23.40
2022-08-18T12:10:05.098Z,23.27
2022-08-18T12:10:31.548Z,23.24
2022-08-18T12:11:30.755Z,23.22
2022-08-18T12:12:30.586Z,23.24
2022-08-18T12:13:30.519Z,23.22
2022-08-18T12:14:35.262Z,23.01
2022-08-18T12:15:46.774Z,22.97
2022-08-18T12:16:31.503Z,22.99
2022-08-18T12:17:30.484Z,22.97
2022-08-18T12:18:30.466Z,23.02
2022-08-18T12:19:30.461Z,23.05
2022-08-18T12:20:30.429Z,23.07
2022-08-18T12:21:30.526Z,23.09
2022-08-18T12:22:30.409Z,23.14
2022-08-18T12:23:38.606Z,23.19
2022-08-18T12:24:36.444Z,23.04
2022-08-18T12:25:31.378Z,22.89
2022-08-18T12:26:43.399Z,22.78
2022-08-18T12:27:31.868Z,22.78
2022-08-18T12:28:30.371Z,22.77
2022-08-18T12:30:31.332Z,22.84
2022-08-18T12:31:42.524Z,22.86
2022-08-18T12:32:46.531Z,22.92
2022-08-18T12:33:34.528Z,22.87
2022-08-18T12:34:31.292Z,22.87
2022-08-18T12:35:30.276Z,22.87
2022-08-18T12:36:30.295Z,22.86
2022-08-18T12:38:31.256Z,22.83
2022-08-18T12:39:30.298Z,22.84
2022-08-18T12:40:30.275Z,22.84
2022-08-18T12:41:30.240Z,22.74
2022-08-18T12:42:30.258Z,22.67
2022-08-18T12:43:32.257Z,22.71
2022-08-18T12:44:30.200Z,22.74
2022-08-18T12:45:30.208Z,22.78
2022-08-18T12:46:30.192Z,22.78
2022-08-18T12:47:31.068Z,22.69
2022-08-18T12:48:30.201Z,22.64
2022-08-18T12:49:30.140Z,22.60
2022-08-18T12:50:31.203Z,22.57
2022-08-18T12:51:30.299Z,22.60
2022-08-18T12:52:30.132Z,22.62
2022-08-18T12:53:38.206Z,22.56
2022-08-18T12:54:31.095Z,22.56
2022-08-18T12:55:30.074Z,22.53
2022-08-18T12:56:30.120Z,22.46
2022-08-18T12:57:51.690Z,22.46